createdAt,value
2018-01-12T00:02:18.028Z,1.80
2018-01-12T00:04:44.503Z,1.80
2018-01-12T00:07:10.702Z,1.90
2018-01-12T00:09:37.048Z,1.90
2018-01-12T00:12:03.327Z,1.90
2018-01-12T00:14:30.879Z,1.90
2018-01-12T00:16:57.817Z,1.90
2018-01-12T00:19:24.830Z,2.00
2018-01-12T00:21:52.995Z,2.00
2018-01-12T00:24:20.767Z,2.00
2018-01-12T00:26:48.426Z,2.00
2018-01-12T00:29:14.593Z,2.00
2018-01-12T00:31:40.818Z,2.00
2018-01-12T00:34:07.035Z,2.00
2018-01-12T00:36:34.005Z,2.10
2018-01-12T00:39:00.256Z,2.10
2018-01-12T00:41:26.613Z,2.10
2018-01-12T00:43:52.859Z,2.10
2018-01-12T00:46:19.815Z,2.10
2018-01-12T00:48:46.069Z,2.10
2018-01-12T00:51:12.320Z,2.10
2018-01-12T00:53:38.524Z,2.10
2018-01-12T00:56:04.734Z,2.10
2018-01-12T00:58:30.954Z,2.10
2018-01-12T01:00:57.140Z,2.20
2018-01-12T01:03:23.445Z,2.20
2018-01-12T01:05:49.705Z,2.20
2018-01-12T01:08:15.920Z,2.20
2018-01-12T01:10:42.810Z,2.30
2018-01-12T01:13:09.192Z,2.30
2018-01-12T01:15:35.301Z,2.40
2018-01-12T01:18:01.529Z,2.40
2018-01-12T01:20:27.787Z,2.40
2018-01-12T01:22:54.729Z,2.40
2018-01-12T01:25:21.592Z,2.40
2018-01-12T01:27:47.981Z,2.40
2018-01-12T01:30:14.170Z,2.40
2018-01-12T01:32:40.340Z,2.40
2018-01-12T01:35:06.508Z,2.40
2018-01-12T01:37:32.693Z,2.40
2018-01-12T01:39:58.905Z,2.40
2018-01-12T01:42:25.098Z,2.40
2018-01-12T01:44:51.268Z,2.40
2018-01-12T01:47:18.207Z,2.40
2018-01-12T01:49:45.258Z,2.40
2018-01-12T01:52:11.634Z,2.40
2018-01-12T01:54:37.847Z,2.40
2018-01-12T01:57:04.096Z,2.40
2018-01-12T01:59:30.198Z,2.40
2018-01-12T02:01:56.546Z,2.40
2018-01-12T02:04:22.952Z,2.40
2018-01-12T02:06:49.049Z,2.40
2018-01-12T02:09:16.015Z,2.40
2018-01-12T02:11:42.976Z,2.50
2018-01-12T02:14:09.140Z,2.40
2018-01-12T02:16:35.315Z,2.40
2018-01-12T02:19:02.161Z,2.50
2018-01-12T02:21:29.048Z,2.50
2018-01-12T02:23:55.233Z,2.50
2018-01-12T02:26:21.410Z,2.50
2018-01-12T02:28:47.593Z,2.50
2018-01-12T02:31:13.696Z,2.50
2018-01-12T02:33:40.841Z,2.50
2018-01-12T02:36:07.734Z,2.50
2018-01-12T02:38:33.946Z,2.50
2018-01-12T02:41:00.127Z,2.50
2018-01-12T02:43:27.121Z,2.50
2018-01-12T02:45:53.322Z,2.50
2018-01-12T02:48:19.412Z,2.60
2018-01-12T02:50:45.627Z,2.60
2018-01-12T02:53:11.872Z,2.60
2018-01-12T02:55:38.137Z,2.60
2018-01-12T02:58:04.457Z,2.60
2018-01-12T03:00:30.817Z,2.60
2018-01-12T03:02:57.038Z,2.60
2018-01-12T03:05:23.179Z,2.70
2018-01-12T03:07:49.457Z,2.60
2018-01-12T03:10:16.366Z,2.60
2018-01-12T03:12:44.067Z,2.60
2018-01-12T03:15:10.211Z,2.60
2018-01-12T03:17:36.403Z,2.70
2018-01-12T03:20:03.295Z,2.70
2018-01-12T03:22:29.503Z,2.70
2018-01-12T03:24:55.627Z,2.70
2018-01-12T03:27:21.846Z,2.70
2018-01-12T03:29:47.998Z,2.70
2018-01-12T03:32:14.179Z,2.70
2018-01-12T03:34:40.465Z,2.70
2018-01-12T03:37:06.688Z,2.70
2018-01-12T03:39:32.866Z,2.70
2018-01-12T03:41:59.042Z,2.80
2018-01-12T03:44:25.311Z,2.80
2018-01-12T03:46:52.261Z,2.80
2018-01-12T03:49:19.194Z,2.80
2018-01-12T03:51:46.072Z,2.80
2018-01-12T03:54:12.333Z,2.80
2018-01-12T03:56:38.549Z,2.80
2018-01-12T03:59:04.736Z,2.90
2018-01-12T04:01:30.928Z,2.90
2018-01-12T04:03:57.924Z,2.90
2018-01-12T04:06:24.185Z,2.90
2018-01-12T04:08:50.409Z,2.90
2018-01-12T04:11:16.580Z,2.90
2018-01-12T04:13:42.960Z,2.90
2018-01-12T04:16:09.189Z,2.90
2018-01-12T04:18:35.298Z,2.90
2018-01-12T04:21:01.479Z,2.90
2018-01-12T04:23:28.351Z,2.90
2018-01-12T04:25:54.574Z,2.80
2018-01-12T04:28:20.687Z,2.90
2018-01-12T04:30:46.883Z,2.90
2018-01-12T04:33:12.991Z,2.90
2018-01-12T04:35:39.227Z,2.90
2018-01-12T04:38:05.347Z,3.00
2018-01-12T04:40:31.564Z,3.00
2018-01-12T04:42:57.787Z,3.00
2018-01-12T04:45:23.980Z,2.90
2018-01-12T04:47:50.080Z,2.90
2018-01-12T04:50:16.256Z,2.90
2018-01-12T04:52:42.412Z,2.90
2018-01-12T04:55:09.269Z,2.90
2018-01-12T04:57:36.256Z,2.90
2018-01-12T05:00:02.471Z,2.90
2018-01-12T05:02:28.810Z,3.00
2018-01-12T05:04:55.012Z,3.00
2018-01-12T05:07:21.208Z,3.00
2018-01-12T05:09:48.075Z,2.90
2018-01-12T05:12:14.250Z,2.90
2018-01-12T05:14:40.462Z,3.00
2018-01-12T05:17:06.676Z,2.90
2018-01-12T05:19:32.903Z,2.90
2018-01-12T05:21:59.054Z,2.90
2018-01-12T05:24:25.232Z,3.00
2018-01-12T05:26:51.450Z,2.90
2018-01-12T05:29:17.644Z,2.90
2018-01-12T05:31:43.856Z,2.90
2018-01-12T05:34:10.054Z,3.00
2018-01-12T05:36:36.231Z,3.00
2018-01-12T05:39:02.412Z,3.00
2018-01-12T05:41:28.553Z,3.00
2018-01-12T05:43:54.783Z,2.90
2018-01-12T05:46:20.901Z,3.00
2018-01-12T05:48:47.188Z,3.00
2018-01-12T05:51:13.320Z,3.00
2018-01-12T05:53:39.736Z,3.00
2018-01-12T05:56:05.907Z,3.00
2018-01-12T05:58:32.116Z,3.00
2018-01-12T06:01:10.611Z,3.00
2018-01-12T06:03:49.114Z,3.00
2018-01-12T06:06:17.013Z,3.00
2018-01-12T06:08:43.166Z,3.00
2018-01-12T06:11:09.404Z,3.00
2018-01-12T06:13:35.719Z,3.00
2018-01-12T06:16:01.919Z,3.00
2018-01-12T06:18:28.041Z,3.00
2018-01-12T06:20:54.263Z,3.00
2018-01-12T06:23:20.562Z,3.10
2018-01-12T06:25:47.412Z,3.10
2018-01-12T06:28:14.313Z,3.10
2018-01-12T06:30:40.433Z,3.10
2018-01-12T06:33:06.644Z,3.10
2018-01-12T06:35:32.791Z,3.10
2018-01-12T06:37:58.956Z,3.10
2018-01-12T06:40:25.145Z,3.10
2018-01-12T06:42:51.410Z,3.10
2018-01-12T06:45:17.607Z,3.10
2018-01-12T06:47:43.787Z,3.20
2018-01-12T06:50:09.953Z,3.20
2018-01-12T06:52:36.156Z,3.20
2018-01-12T06:55:02.252Z,3.20
2018-01-12T06:57:28.472Z,3.20
2018-01-12T06:59:54.917Z,3.20
2018-01-12T07:02:21.194Z,3.20
2018-01-12T07:04:47.523Z,3.10
2018-01-12T07:07:14.182Z,3.20
2018-01-12T07:09:40.570Z,3.20
2018-01-12T07:12:07.179Z,3.20
2018-01-12T07:14:33.569Z,3.10
2018-01-12T07:17:00.460Z,3.10
2018-01-12T07:19:26.662Z,3.10
2018-01-12T07:22:05.273Z,3.10
2018-01-12T07:24:31.505Z,3.10
2018-01-12T07:26:57.897Z,3.10
2018-01-12T07:29:24.084Z,3.10
2018-01-12T07:31:50.263Z,3.10
2018-01-12T07:34:17.155Z,3.10
2018-01-12T07:36:43.387Z,3.10
2018-01-12T07:39:09.592Z,3.10
2018-01-12T07:41:35.742Z,3.20
2018-01-12T07:44:01.942Z,3.20
2018-01-12T07:46:28.138Z,3.20
2018-01-12T07:48:55.060Z,3.20
2018-01-12T07:51:21.226Z,3.20
2018-01-12T07:53:47.494Z,3.20
2018-01-12T07:56:13.657Z,3.30
2018-01-12T07:58:40.602Z,3.30
2018-01-12T08:01:13.508Z,3.30
2018-01-12T08:03:39.796Z,3.30
2018-01-12T08:06:05.937Z,3.30
2018-01-12T08:08:32.835Z,3.30
2018-01-12T08:10:58.947Z,3.30
2018-01-12T08:13:25.186Z,3.30
2018-01-12T08:15:51.357Z,3.30
2018-01-12T08:18:18.340Z,3.40
2018-01-12T08:20:44.539Z,3.30
2018-01-12T08:23:10.823Z,3.40
2018-01-12T08:25:37.010Z,3.40
2018-01-12T08:28:03.215Z,3.40
2018-01-12T08:30:30.190Z,3.40
2018-01-12T08:32:56.358Z,3.40
2018-01-12T08:35:22.534Z,3.40
2018-01-12T08:37:48.744Z,3.40
2018-01-12T08:40:14.918Z,3.40
2018-01-12T08:42:41.084Z,3.40
2018-01-12T08:45:08.277Z,3.40
2018-01-12T08:47:34.453Z,3.40
2018-01-12T08:50:01.398Z,3.50
2018-01-12T08:52:28.355Z,3.50
2018-01-12T08:54:55.247Z,3.50
2018-01-12T08:57:21.361Z,3.50
2018-01-12T08:59:47.558Z,3.60
2018-01-12T09:02:13.702Z,3.60
2018-01-12T09:04:39.900Z,3.60
2018-01-12T09:07:06.088Z,3.70
2018-01-12T09:09:33.029Z,3.80
2018-01-12T09:11:59.301Z,3.70
2018-01-12T09:14:37.804Z,3.70
2018-01-12T09:17:05.787Z,3.80
2018-01-12T09:19:45.988Z,3.70
2018-01-12T09:22:12.148Z,3.80
2018-01-12T09:24:44.074Z,3.80
2018-01-12T09:27:10.202Z,3.70
2018-01-12T09:29:36.462Z,3.80
2018-01-12T09:32:03.418Z,3.80
2018-01-12T09:34:42.107Z,3.80
2018-01-12T09:37:08.225Z,3.80
2018-01-12T09:39:41.650Z,3.80
2018-01-12T09:42:08.573Z,3.90
2018-01-12T09:44:34.915Z,3.80
2018-01-12T09:47:14.502Z,3.90
2018-01-12T09:49:41.617Z,3.90
2018-01-12T09:52:07.909Z,3.90
2018-01-12T09:54:34.098Z,3.90
2018-01-12T09:57:00.252Z,3.90
2018-01-12T09:59:29.242Z,3.90
2018-01-12T10:01:55.535Z,3.90
2018-01-12T10:04:21.720Z,4.00
2018-01-12T10:06:48.710Z,4.10
2018-01-12T10:09:14.887Z,4.00
2018-01-12T10:11:41.108Z,4.10
2018-01-12T10:14:07.323Z,4.10
2018-01-12T10:16:33.442Z,4.10
2018-01-12T10:18:59.663Z,4.10
2018-01-12T10:21:38.200Z,4.10
2018-01-12T10:24:04.367Z,4.10
2018-01-12T10:26:30.537Z,4.00
2018-01-12T10:29:05.792Z,4.00
2018-01-12T10:31:50.973Z,4.00
2018-01-12T10:34:22.905Z,4.00
2018-01-12T10:36:54.182Z,4.00
2018-01-12T10:39:21.117Z,3.90
2018-01-12T10:41:59.526Z,3.90
2018-01-12T10:44:26.297Z,3.90
2018-01-12T10:47:05.206Z,3.90
2018-01-12T10:49:32.267Z,4.00
2018-01-12T10:52:04.900Z,3.90
2018-01-12T10:54:31.432Z,4.00
2018-01-12T10:56:57.765Z,3.90
2018-01-12T10:59:24.001Z,3.90
2018-01-12T11:01:51.189Z,3.90
2018-01-12T11:04:17.398Z,3.90
2018-01-12T11:06:43.901Z,3.80
2018-01-12T11:09:10.273Z,3.80
2018-01-12T11:11:36.640Z,3.90
2018-01-12T11:14:02.943Z,3.90
2018-01-12T11:16:29.190Z,3.80
2018-01-12T11:18:55.403Z,3.80
2018-01-12T11:21:21.583Z,3.80
2018-01-12T11:23:47.870Z,3.80
2018-01-12T11:26:14.317Z,3.80
2018-01-12T11:28:40.704Z,3.80
2018-01-12T11:31:07.082Z,3.70
2018-01-12T11:33:33.352Z,3.70
2018-01-12T11:35:59.592Z,3.70
2018-01-12T11:38:25.771Z,3.70
2018-01-12T11:40:52.045Z,3.70
2018-01-12T11:43:18.223Z,3.70
2018-01-12T11:45:44.507Z,3.70
2018-01-12T11:48:10.808Z,3.80
2018-01-12T11:50:37.889Z,3.80
2018-01-12T11:53:04.118Z,3.70
2018-01-12T11:55:30.327Z,3.80
2018-01-12T11:57:56.612Z,3.80
2018-01-12T12:00:22.787Z,3.80
2018-01-12T12:02:49.099Z,3.80
2018-01-12T12:05:15.362Z,3.80
2018-01-12T12:07:41.628Z,3.80
2018-01-12T12:10:08.521Z,3.80
2018-01-12T12:12:34.772Z,3.80
2018-01-12T12:15:01.150Z,3.80
2018-01-12T12:17:28.125Z,3.80
2018-01-12T12:19:54.656Z,3.80
2018-01-12T12:22:21.098Z,3.80
2018-01-12T12:24:47.414Z,3.80
2018-01-12T12:27:13.566Z,3.80
2018-01-12T12:29:39.839Z,3.80
2018-01-12T12:32:06.138Z,3.80
2018-01-12T12:34:32.280Z,3.70
2018-01-12T12:36:59.273Z,3.70
2018-01-12T12:39:25.616Z,3.70
2018-01-12T12:41:51.810Z,3.70
2018-01-12T12:44:18.176Z,3.70
2018-01-12T12:46:44.445Z,3.70
2018-01-12T12:49:11.485Z,3.70
2018-01-12T12:51:38.540Z,3.70
2018-01-12T12:54:05.531Z,3.70
2018-01-12T12:56:31.768Z,3.70
2018-01-12T12:58:58.101Z,3.70
2018-01-12T13:01:24.296Z,3.70
2018-01-12T13:03:50.558Z,3.70
2018-01-12T13:06:16.890Z,3.70
2018-01-12T13:08:43.072Z,3.70
2018-01-12T13:11:09.297Z,3.60
2018-01-12T13:13:35.506Z,3.60
2018-01-12T13:16:01.776Z,3.60
2018-01-12T13:18:28.013Z,3.60
2018-01-12T13:20:54.267Z,3.60
2018-01-12T13:23:20.578Z,3.60
2018-01-12T13:25:46.689Z,3.60
2018-01-12T13:28:12.896Z,3.60
2018-01-12T13:30:39.089Z,3.60
2018-01-12T13:33:06.013Z,3.60
2018-01-12T13:35:32.180Z,3.50
2018-01-12T13:37:58.406Z,3.60
2018-01-12T13:40:24.628Z,3.50
2018-01-12T13:42:51.264Z,3.60
2018-01-12T13:45:17.612Z,3.60
2018-01-12T13:47:43.846Z,3.50
2018-01-12T13:50:10.100Z,3.50
2018-01-12T13:52:36.311Z,3.50
2018-01-12T13:55:02.425Z,3.60
2018-01-12T13:57:28.622Z,3.60
2018-01-12T13:59:54.853Z,3.60
2018-01-12T14:02:21.090Z,3.50
2018-01-12T14:04:47.370Z,3.50
2018-01-12T14:07:13.636Z,3.50
2018-01-12T14:09:39.826Z,3.50
2018-01-12T14:12:05.990Z,3.50
2018-01-12T14:14:32.747Z,3.50
2018-01-12T14:16:59.000Z,3.50
2018-01-12T14:19:25.149Z,3.50
2018-01-12T14:21:52.072Z,3.50
2018-01-12T14:24:18.207Z,3.50
2018-01-12T14:26:44.461Z,3.50
2018-01-12T14:29:10.632Z,3.50
2018-01-12T14:31:38.533Z,3.50
2018-01-12T14:34:04.800Z,3.50
2018-01-12T14:36:31.208Z,3.50
2018-01-12T14:38:58.187Z,3.50
2018-01-12T14:41:24.465Z,3.40
2018-01-12T14:43:51.501Z,3.40
2018-01-12T14:46:18.423Z,3.40
2018-01-12T14:48:44.659Z,3.40
2018-01-12T14:51:11.846Z,3.40
2018-01-12T14:53:38.762Z,3.40
2018-01-12T14:56:04.973Z,3.40
2018-01-12T14:58:31.193Z,3.40
2018-01-12T15:00:57.356Z,3.40
2018-01-12T15:03:24.292Z,3.40
2018-01-12T15:05:50.477Z,3.30
2018-01-12T15:08:16.856Z,3.40
2018-01-12T15:10:43.765Z,3.40
2018-01-12T15:13:09.959Z,3.40
2018-01-12T15:15:36.258Z,3.40
2018-01-12T15:18:03.309Z,3.40
2018-01-12T15:20:30.334Z,3.30
2018-01-12T15:22:56.533Z,3.40
2018-01-12T15:25:22.839Z,3.30
2018-01-12T15:27:49.057Z,3.30
2018-01-12T15:30:15.369Z,3.30
2018-01-12T15:32:42.344Z,3.30
2018-01-12T15:35:08.681Z,3.30
2018-01-12T15:37:34.920Z,3.30
2018-01-12T15:40:01.316Z,3.30
2018-01-12T15:42:27.656Z,3.30
2018-01-12T15:44:53.883Z,3.30
2018-01-12T15:47:20.161Z,3.30
2018-01-12T15:49:46.560Z,3.30
2018-01-12T15:52:12.756Z,3.30
2018-01-12T15:54:39.855Z,3.30
2018-01-12T15:57:06.490Z,3.30
2018-01-12T15:59:32.697Z,3.20
2018-01-12T16:01:59.003Z,3.20
2018-01-12T16:04:25.285Z,3.20
2018-01-12T16:06:52.386Z,3.20
2018-01-12T16:09:18.646Z,3.20
2018-01-12T16:11:44.832Z,3.20
2018-01-12T16:14:11.050Z,3.20
2018-01-12T16:16:37.294Z,3.20
2018-01-12T16:19:03.576Z,3.20
2018-01-12T16:21:30.469Z,3.20
2018-01-12T16:23:56.704Z,3.10
2018-01-12T16:26:22.912Z,3.20
2018-01-12T16:28:49.340Z,3.20
2018-01-12T16:31:15.486Z,3.20
2018-01-12T16:33:41.828Z,3.20
2018-01-12T16:36:08.737Z,3.20
2018-01-12T16:38:34.958Z,3.20
2018-01-12T16:41:01.122Z,3.20
2018-01-12T16:43:28.433Z,3.20
2018-01-12T16:45:54.759Z,3.20
2018-01-12T16:48:21.206Z,3.20
2018-01-12T16:50:47.413Z,3.20
2018-01-12T16:53:13.596Z,3.10
2018-01-12T16:55:39.856Z,3.10
2018-01-12T16:58:06.769Z,3.10
2018-01-12T17:00:33.023Z,3.10
2018-01-12T17:03:00.041Z,3.10
2018-01-12T17:05:26.255Z,3.10
2018-01-12T17:07:52.383Z,3.10
2018-01-12T17:10:19.355Z,3.10
2018-01-12T17:12:46.299Z,3.10
2018-01-12T17:15:13.174Z,3.10
2018-01-12T17:17:39.372Z,3.10
2018-01-12T17:20:06.261Z,3.10
2018-01-12T17:22:32.425Z,3.10
2018-01-12T17:24:58.781Z,3.20
2018-01-12T17:27:24.918Z,3.20
2018-01-12T17:29:51.074Z,3.20
2018-01-12T17:32:17.219Z,3.20
2018-01-12T17:34:44.173Z,3.20
2018-01-12T17:37:11.067Z,3.20
2018-01-12T17:39:37.255Z,3.20
2018-01-12T17:42:04.229Z,3.20
2018-01-12T17:44:30.511Z,3.20
2018-01-12T17:46:56.734Z,3.20
2018-01-12T17:49:22.924Z,3.20
2018-01-12T17:51:49.110Z,3.20
2018-01-12T17:54:16.099Z,3.30
2018-01-12T17:56:42.327Z,3.20
2018-01-12T17:59:08.450Z,3.30
2018-01-12T18:01:34.750Z,3.30
2018-01-12T18:04:00.888Z,3.30
2018-01-12T18:06:27.029Z,3.30
2018-01-12T18:08:53.249Z,3.30
2018-01-12T18:11:19.454Z,3.30
2018-01-12T18:13:45.645Z,3.30
2018-01-12T18:16:11.818Z,3.30
2018-01-12T18:18:37.995Z,3.30
2018-01-12T18:21:04.160Z,3.30
2018-01-12T18:23:30.422Z,3.30
2018-01-12T18:25:56.596Z,3.30
2018-01-12T18:28:23.598Z,3.30
2018-01-12T18:30:49.843Z,3.20
2018-01-12T18:33:16.072Z,3.30
2018-01-12T18:35:42.357Z,3.30
2018-01-12T18:38:08.513Z,3.30
2018-01-12T18:40:34.682Z,3.30
2018-01-12T18:43:01.069Z,3.30
2018-01-12T18:45:27.318Z,3.30
2018-01-12T18:47:54.323Z,3.30
2018-01-12T18:50:21.058Z,3.30
2018-01-12T18:52:47.372Z,3.20
2018-01-12T18:55:13.688Z,3.30
2018-01-12T18:57:40.598Z,3.30
2018-01-12T19:00:07.474Z,3.30
2018-01-12T19:02:33.779Z,3.30
2018-01-12T19:05:00.767Z,3.30
2018-01-12T19:07:27.016Z,3.30
2018-01-12T19:09:53.352Z,3.30
2018-01-12T19:12:19.789Z,3.30
2018-01-12T19:14:46.178Z,3.30
2018-01-12T19:17:12.420Z,3.30
2018-01-12T19:19:38.642Z,3.30
2018-01-12T19:22:04.825Z,3.30
2018-01-12T19:24:31.909Z,3.30
2018-01-12T19:26:58.128Z,3.30
2018-01-12T19:29:24.351Z,3.30
2018-01-12T19:31:50.588Z,3.30
2018-01-12T19:34:16.809Z,3.30
2018-01-12T19:36:42.988Z,3.30
2018-01-12T19:39:09.268Z,3.30
2018-01-12T19:41:36.496Z,3.30
2018-01-12T19:44:02.789Z,3.30
2018-01-12T19:46:29.172Z,3.20
2018-01-12T19:48:55.447Z,3.30
2018-01-12T19:51:21.711Z,3.30
2018-01-12T19:53:47.896Z,3.30
2018-01-12T19:56:14.177Z,3.30
2018-01-12T19:58:40.508Z,3.30
2018-01-12T20:01:08.035Z,3.40
2018-01-12T20:03:35.078Z,3.30
2018-01-12T20:06:01.991Z,3.30
2018-01-12T20:08:28.115Z,3.30
2018-01-12T20:10:54.481Z,3.30
2018-01-12T20:13:21.488Z,3.30
2018-01-12T20:15:48.690Z,3.30
2018-01-12T20:18:14.916Z,3.30
2018-01-12T20:20:41.174Z,3.30
2018-01-12T20:23:07.391Z,3.30
2018-01-12T20:25:33.739Z,3.30
2018-01-12T20:27:59.924Z,3.30
2018-01-12T20:30:26.190Z,3.30
2018-01-12T20:32:52.518Z,3.30
2018-01-12T20:35:18.688Z,3.20
2018-01-12T20:37:45.668Z,3.30
2018-01-12T20:40:11.941Z,3.20
2018-01-12T20:42:38.060Z,3.30
2018-01-12T20:45:04.282Z,3.30
2018-01-12T20:47:30.534Z,3.30
2018-01-12T20:49:57.494Z,3.20
2018-01-12T20:52:23.638Z,3.20
2018-01-12T20:54:50.037Z,3.20
2018-01-12T20:57:17.165Z,3.20
2018-01-12T20:59:43.503Z,3.20
2018-01-12T21:02:09.834Z,3.20
2018-01-12T21:04:36.835Z,3.20
2018-01-12T21:07:03.068Z,3.20
2018-01-12T21:09:29.265Z,3.20
2018-01-12T21:11:55.424Z,3.20
2018-01-12T21:14:21.745Z,3.20
2018-01-12T21:16:47.946Z,3.20
2018-01-12T21:19:14.152Z,3.20
2018-01-12T21:21:41.082Z,3.20
2018-01-12T21:24:07.286Z,3.20
2018-01-12T21:26:33.541Z,3.30
2018-01-12T21:29:00.567Z,3.30
2018-01-12T21:31:27.608Z,3.30
2018-01-12T21:33:53.913Z,3.30
2018-01-12T21:36:20.190Z,3.30
2018-01-12T21:38:47.227Z,3.20
2018-01-12T21:41:13.605Z,3.20
2018-01-12T21:43:40.032Z,3.20
2018-01-12T21:46:06.289Z,3.20
2018-01-12T21:48:32.679Z,3.20
2018-01-12T21:50:58.869Z,3.20
2018-01-12T21:53:25.925Z,3.20
2018-01-12T21:55:52.827Z,3.20
2018-01-12T21:58:19.173Z,3.20
2018-01-12T22:00:46.108Z,3.20
2018-01-12T22:03:12.535Z,3.20
2018-01-12T22:05:38.892Z,3.20
2018-01-12T22:08:05.211Z,3.20
2018-01-12T22:10:32.691Z,3.20
2018-01-12T22:12:59.688Z,3.20
2018-01-12T22:15:26.008Z,3.20
2018-01-12T22:17:52.213Z,3.20
2018-01-12T22:20:18.505Z,3.20
2018-01-12T22:22:44.812Z,3.20
2018-01-12T22:25:11.282Z,3.20
2018-01-12T22:27:38.148Z,3.20
2018-01-12T22:30:04.450Z,3.10
2018-01-12T22:32:31.469Z,3.10
2018-01-12T22:34:57.658Z,3.10
2018-01-12T22:37:23.880Z,3.10
2018-01-12T22:39:50.035Z,3.10
2018-01-12T22:42:16.359Z,3.10
2018-01-12T22:44:42.682Z,3.10
2018-01-12T22:47:08.812Z,3.10
2018-01-12T22:49:35.071Z,3.10
2018-01-12T22:52:01.335Z,3.10
2018-01-12T22:54:27.726Z,3.10
2018-01-12T22:56:54.267Z,3.10
2018-01-12T22:59:20.450Z,3.10
2018-01-12T23:01:46.712Z,3.10
2018-01-12T23:04:12.931Z,3.10
2018-01-12T23:06:39.110Z,3.10
2018-01-12T23:09:05.490Z,3.10
2018-01-12T23:11:31.799Z,3.00
2018-01-12T23:13:58.539Z,3.00
2018-01-12T23:16:24.653Z,3.00
2018-01-12T23:18:50.805Z,3.00
2018-01-12T23:21:16.948Z,3.10
2018-01-12T23:23:43.275Z,3.10
2018-01-12T23:26:09.655Z,3.10
2018-01-12T23:28:35.876Z,3.10
2018-01-12T23:31:02.035Z,3.10
2018-01-12T23:33:28.182Z,3.10
2018-01-12T23:35:55.240Z,3.10
2018-01-12T23:38:22.209Z,3.10
2018-01-12T23:40:48.402Z,3.10
2018-01-12T23:43:15.366Z,3.10
2018-01-12T23:45:41.571Z,3.10
2018-01-12T23:48:08.531Z,3.10
2018-01-12T23:50:35.529Z,3.10
2018-01-12T23:53:01.814Z,3.10
2018-01-12T23:55:27.960Z,3.10
2018-01-12T23:57:54.136Z,3.00
